sensor_id;sensor_type;location;lat;lon;timestamp;temperature;humidity
4673;DHT22;61885;53.560;9.940;2023-07-29T00:00:50;19.30;89.30
4673;DHT22;61885;53.560;9.940;2023-07-29T00:03:24;19.40;89.10
4673;DHT22;61885;53.560;9.940;2023-07-29T00:06:00;19.40;89.10
4673;DHT22;61885;53.560;9.940;2023-07-29T00:08:34;19.40;89.10
4673;DHT22;61885;53.560;9.940;2023-07-29T00:11:04;19.30;89.20
4673;DHT22;61885;53.560;9.940;2023-07-29T00:13:42;19.30;89.30
4673;DHT22;61885;53.560;9.940;2023-07-29T00:16:17;19.30;89.30
4673;DHT22;61885;53.560;9.940;2023-07-29T00:18:51;19.20;89.50
4673;DHT22;61885;53.560;9.940;2023-07-29T00:21:23;19.20;89.30
4673;DHT22;61885;53.560;9.940;2023-07-29T00:23:55;19.20;89.20
4673;DHT22;61885;53.560;9.940;2023-07-29T00:26:29;19.10;89.40
4673;DHT22;61885;53.560;9.940;2023-07-29T00:29:00;19.10;89.50
4673;DHT22;61885;53.560;9.940;2023-07-29T00:31:34;19.20;89.40
4673;DHT22;61885;53.560;9.940;2023-07-29T00:34:04;19.10;89.60
4673;DHT22;61885;53.560;9.940;2023-07-29T00:36:38;19.10;89.50
4673;DHT22;61885;53.560;9.940;2023-07-29T00:39:08;19.10;89.70
4673;DHT22;61885;53.560;9.940;2023-07-29T00:41:42;19.10;89.80
4673;DHT22;61885;53.560;9.940;2023-07-29T00:44:12;19.10;89.90
4673;DHT22;61885;53.560;9.940;2023-07-29T00:46:45;19.00;89.90
4673;DHT22;61885;53.560;9.940;2023-07-29T00:49:20;19.10;90.20
4673;DHT22;61885;53.560;9.940;2023-07-29T00:51:53;19.10;90.30
4673;DHT22;61885;53.560;9.940;2023-07-29T00:54:26;19.10;90.60
4673;DHT22;61885;53.560;9.940;2023-07-29T00:56:55;19.10;90.70
4673;DHT22;61885;53.560;9.940;2023-07-29T00:59:26;19.10;91.10
4673;DHT22;61885;53.560;9.940;2023-07-29T01:01:58;19.00;91.50
4673;DHT22;61885;53.560;9.940;2023-07-29T01:04:33;19.00;91.70
4673;DHT22;61885;53.560;9.940;2023-07-29T01:07:14;19.10;92.00
4673;DHT22;61885;53.560;9.940;2023-07-29T01:09:50;19.10;92.30
4673;DHT22;61885;53.560;9.940;2023-07-29T01:12:26;19.10;92.40
4673;DHT22;61885;53.560;9.940;2023-07-29T01:15:04;19.10;93.10
4673;DHT22;61885;53.560;9.940;2023-07-29T01:17:43;19.00;93.50
4673;DHT22;61885;53.560;9.940;2023-07-29T01:20:16;19.00;93.50
4673;DHT22;61885;53.560;9.940;2023-07-29T01:22:52;19.10;93.60
4673;DHT22;61885;53.560;9.940;2023-07-29T01:25:24;19.10;93.50
4673;DHT22;61885;53.560;9.940;2023-07-29T01:27:55;19.20;93.50
4673;DHT22;61885;53.560;9.940;2023-07-29T01:30:30;19.20;93.50
4673;DHT22;61885;53.560;9.940;2023-07-29T01:33:06;19.20;93.90
4673;DHT22;61885;53.560;9.940;2023-07-29T01:35:43;19.10;94.20
4673;DHT22;61885;53.560;9.940;2023-07-29T01:38:17;19.10;94.20
4673;DHT22;61885;53.560;9.940;2023-07-29T01:40:55;19.10;94.60
4673;DHT22;61885;53.560;9.940;2023-07-29T01:43:28;19.10;94.60
4673;DHT22;61885;53.560;9.940;2023-07-29T01:45:58;19.10;95.10
4673;DHT22;61885;53.560;9.940;2023-07-29T01:48:33;19.20;95.50
4673;DHT22;61885;53.560;9.940;2023-07-29T01:51:03;19.10;96.30
4673;DHT22;61885;53.560;9.940;2023-07-29T01:53:32;19.00;97.20
4673;DHT22;61885;53.560;9.940;2023-07-29T01:56:05;19.00;97.30
4673;DHT22;61885;53.560;9.940;2023-07-29T01:58:35;18.90;97.60
4673;DHT22;61885;53.560;9.940;2023-07-29T02:01:07;18.90;97.80
4673;DHT22;61885;53.560;9.940;2023-07-29T02:03:37;18.90;97.90
4673;DHT22;61885;53.560;9.940;2023-07-29T02:06:10;18.90;97.90
4673;DHT22;61885;53.560;9.940;2023-07-29T02:08:41;18.80;98.00
4673;DHT22;61885;53.560;9.940;2023-07-29T02:11:15;18.80;98.20
4673;DHT22;61885;53.560;9.940;2023-07-29T02:13:48;18.80;98.40
4673;DHT22;61885;53.560;9.940;2023-07-29T02:16:18;18.80;98.40
4673;DHT22;61885;53.560;9.940;2023-07-29T02:18:53;18.80;98.50
4673;DHT22;61885;53.560;9.940;2023-07-29T02:21:22;18.80;98.60
4673;DHT22;61885;53.560;9.940;2023-07-29T02:23:54;18.80;98.60
4673;DHT22;61885;53.560;9.940;2023-07-29T02:26:26;18.80;98.60
4673;DHT22;61885;53.560;9.940;2023-07-29T02:29:02;18.70;98.60
4673;DHT22;61885;53.560;9.940;2023-07-29T02:31:33;18.60;98.80
4673;DHT22;61885;53.560;9.940;2023-07-29T02:34:05;18.70;98.90
4673;DHT22;61885;53.560;9.940;2023-07-29T02:36:38;18.70;99.00
4673;DHT22;61885;53.560;9.940;2023-07-29T02:39:07;18.60;99.00
4673;DHT22;61885;53.560;9.940;2023-07-29T02:41:40;18.60;99.10
4673;DHT22;61885;53.560;9.940;2023-07-29T02:44:11;18.60;99.20
4673;DHT22;61885;53.560;9.940;2023-07-29T02:46:41;18.60;99.10
4673;DHT22;61885;53.560;9.940;2023-07-29T02:49:12;18.50;99.30
4673;DHT22;61885;53.560;9.940;2023-07-29T02:51:42;18.60;99.30
4673;DHT22;61885;53.560;9.940;2023-07-29T02:54:14;18.60;99.20
4673;DHT22;61885;53.560;9.940;2023-07-29T02:56:49;18.60;99.10
4673;DHT22;61885;53.560;9.940;2023-07-29T02:59:19;18.60;99.00
4673;DHT22;61885;53.560;9.940;2023-07-29T03:01:48;18.60;99.20
4673;DHT22;61885;53.560;9.940;2023-07-29T03:04:19;18.50;99.30
4673;DHT22;61885;53.560;9.940;2023-07-29T03:06:50;18.50;99.10
4673;DHT22;61885;53.560;9.940;2023-07-29T03:09:23;18.50;99.20
4673;DHT22;61885;53.560;9.940;2023-07-29T03:12:01;18.50;99.10
4673;DHT22;61885;53.560;9.940;2023-07-29T03:14:33;18.50;99.20
4673;DHT22;61885;53.560;9.940;2023-07-29T03:17:06;18.40;99.30
4673;DHT22;61885;53.560;9.940;2023-07-29T03:19:38;18.40;99.20
4673;DHT22;61885;53.560;9.940;2023-07-29T03:22:07;18.50;99.20
4673;DHT22;61885;53.560;9.940;2023-07-29T03:24:43;18.40;99.20
4673;DHT22;61885;53.560;9.940;2023-07-29T03:27:17;18.40;99.20
4673;DHT22;61885;53.560;9.940;2023-07-29T03:29:50;18.50;99.20
4673;DHT22;61885;53.560;9.940;2023-07-29T03:32:21;18.40;99.20
4673;DHT22;61885;53.560;9.940;2023-07-29T03:34:52;18.50;99.20
4673;DHT22;61885;53.560;9.940;2023-07-29T03:37:22;18.50;99.10
4673;DHT22;61885;53.560;9.940;2023-07-29T03:39:53;18.50;99.10
4673;DHT22;61885;53.560;9.940;2023-07-29T03:42:27;18.50;99.20
4673;DHT22;61885;53.560;9.940;2023-07-29T03:44:58;18.50;99.10
4673;DHT22;61885;53.560;9.940;2023-07-29T03:47:31;18.60;99.00
4673;DHT22;61885;53.560;9.940;2023-07-29T03:50:02;18.60;99.20
4673;DHT22;61885;53.560;9.940;2023-07-29T03:52:33;18.60;99.10
4673;DHT22;61885;53.560;9.940;2023-07-29T03:55:03;18.60;98.90
4673;DHT22;61885;53.560;9.940;2023-07-29T03:57:38;18.70;99.00
4673;DHT22;61885;53.560;9.940;2023-07-29T04:00:10;18.60;98.80
4673;DHT22;61885;53.560;9.940;2023-07-29T04:02:42;18.70;98.80
4673;DHT22;61885;53.560;9.940;2023-07-29T04:05:17;18.60;99.00
4673;DHT22;61885;53.560;9.940;2023-07-29T04:07:46;18.60;98.80
4673;DHT22;61885;53.560;9.940;2023-07-29T04:10:21;18.70;98.70
4673;DHT22;61885;53.560;9.940;2023-07-29T04:12:55;18.80;98.70
4673;DHT22;61885;53.560;9.940;2023-07-29T04:15:24;18.70;98.70
4673;DHT22;61885;53.560;9.940;2023-07-29T04:17:54;18.80;98.70
4673;DHT22;61885;53.560;9.940;2023-07-29T04:20:23;18.70;98.40
4673;DHT22;61885;53.560;9.940;2023-07-29T04:22:56;18.70;98.50
4673;DHT22;61885;53.560;9.940;2023-07-29T04:25:28;18.70;98.50
4673;DHT22;61885;53.560;9.940;2023-07-29T04:28:02;18.60;98.50
4673;DHT22;61885;53.560;9.940;2023-07-29T04:30:31;18.60;98.60
4673;DHT22;61885;53.560;9.940;2023-07-29T04:33:03;18.50;98.70
4673;DHT22;61885;53.560;9.940;2023-07-29T04:35:36;18.40;98.90
4673;DHT22;61885;53.560;9.940;2023-07-29T04:38:05;18.50;99.10
4673;DHT22;61885;53.560;9.940;2023-07-29T04:40:35;18.60;99.00
4673;DHT22;61885;53.560;9.940;2023-07-29T04:43:09;18.40;99.10
4673;DHT22;61885;53.560;9.940;2023-07-29T04:45:42;18.60;99.20
4673;DHT22;61885;53.560;9.940;2023-07-29T04:48:12;18.60;98.90
4673;DHT22;61885;53.560;9.940;2023-07-29T04:50:41;18.50;99.10
4673;DHT22;61885;53.560;9.940;2023-07-29T04:53:13;18.50;98.90
4673;DHT22;61885;53.560;9.940;2023-07-29T04:55:45;18.60;98.90
4673;DHT22;61885;53.560;9.940;2023-07-29T04:58:17;18.50;98.80
4673;DHT22;61885;53.560;9.940;2023-07-29T05:00:47;18.60;98.80
4673;DHT22;61885;53.560;9.940;2023-07-29T05:03:16;18.50;98.70
4673;DHT22;61885;53.560;9.940;2023-07-29T05:05:47;18.40;99.20
4673;DHT22;61885;53.560;9.940;2023-07-29T05:08:18;18.40;99.20
4673;DHT22;61885;53.560;9.940;2023-07-29T05:10:49;18.60;99.10
4673;DHT22;61885;53.560;9.940;2023-07-29T05:13:22;18.50;98.80
4673;DHT22;61885;53.560;9.940;2023-07-29T05:15:51;18.50;99.00
4673;DHT22;61885;53.560;9.940;2023-07-29T05:18:21;18.60;98.90
4673;DHT22;61885;53.560;9.940;2023-07-29T05:20:55;19.00;98.50
4673;DHT22;61885;53.560;9.940;2023-07-29T05:23:25;18.80;97.80
4673;DHT22;61885;53.560;9.940;2023-07-29T05:25:54;18.80;97.50
4673;DHT22;61885;53.560;9.940;2023-07-29T05:28:27;18.70;97.80
4673;DHT22;61885;53.560;9.940;2023-07-29T05:31:04;19.00;97.70
4673;DHT22;61885;53.560;9.940;2023-07-29T05:33:34;19.10;97.20
4673;DHT22;61885;53.560;9.940;2023-07-29T05:36:23;19.10;96.60
4673;DHT22;61885;53.560;9.940;2023-07-29T05:38:56;19.20;96.50
4673;DHT22;61885;53.560;9.940;2023-07-29T05:41:26;19.10;95.90
4673;DHT22;61885;53.560;9.940;2023-07-29T05:43:59;19.20;96.20
4673;DHT22;61885;53.560;9.940;2023-07-29T05:46:29;19.30;95.90
4673;DHT22;61885;53.560;9.940;2023-07-29T05:48:58;19.10;95.60
4673;DHT22;61885;53.560;9.940;2023-07-29T05:51:30;19.20;95.80
4673;DHT22;61885;53.560;9.940;2023-07-29T05:54:00;19.20;95.70
4673;DHT22;61885;53.560;9.940;2023-07-29T05:56:33;19.10;95.80
4673;DHT22;61885;53.560;9.940;2023-07-29T05:59:06;19.10;95.90
4673;DHT22;61885;53.560;9.940;2023-07-29T06:01:43;19.00;96.30
4673;DHT22;61885;53.560;9.940;2023-07-29T06:04:13;19.10;96.50
4673;DHT22;61885;53.560;9.940;2023-07-29T06:06:43;19.20;96.30
4673;DHT22;61885;53.560;9.940;2023-07-29T06:09:14;19.30;96.00
4673;DHT22;61885;53.560;9.940;2023-07-29T06:11:44;19.30;95.70
4673;DHT22;61885;53.560;9.940;2023-07-29T06:14:20;19.40;95.00
4673;DHT22;61885;53.560;9.940;2023-07-29T06:16:49;19.50;95.10
4673;DHT22;61885;53.560;9.940;2023-07-29T06:19:20;19.60;94.60
4673;DHT22;61885;53.560;9.940;2023-07-29T06:21:51;19.60;94.30
4673;DHT22;61885;53.560;9.940;2023-07-29T06:24:24;19.60;93.90
4673;DHT22;61885;53.560;9.940;2023-07-29T06:26:53;19.50;94.00
4673;DHT22;61885;53.560;9.940;2023-07-29T06:29:26;19.60;94.00
4673;DHT22;61885;53.560;9.940;2023-07-29T06:31:58;19.60;93.80
4673;DHT22;61885;53.560;9.940;2023-07-29T06:34:30;19.60;93.80
4673;DHT22;61885;53.560;9.940;2023-07-29T06:36:59;19.50;93.70
4673;DHT22;61885;53.560;9.940;2023-07-29T06:39:29;19.60;93.80
4673;DHT22;61885;53.560;9.940;2023-07-29T06:41:59;19.70;93.40
4673;DHT22;61885;53.560;9.940;2023-07-29T06:44:33;19.80;92.50
4673;DHT22;61885;53.560;9.940;2023-07-29T06:47:20;19.90;92.40
4673;DHT22;61885;53.560;9.940;2023-07-29T06:50:00;20.00;92.30
4673;DHT22;61885;53.560;9.940;2023-07-29T06:52:30;20.00;92.20
4673;DHT22;61885;53.560;9.940;2023-07-29T06:54:59;19.90;91.90
4673;DHT22;61885;53.560;9.940;2023-07-29T06:57:31;19.80;92.30
4673;DHT22;61885;53.560;9.940;2023-07-29T07:00:06;19.80;92.80
4673;DHT22;61885;53.560;9.940;2023-07-29T07:02:35;19.80;92.90
4673;DHT22;61885;53.560;9.940;2023-07-29T07:05:09;19.80;93.20
4673;DHT22;61885;53.560;9.940;2023-07-29T07:07:41;19.80;93.50
4673;DHT22;61885;53.560;9.940;2023-07-29T07:10:11;19.80;93.50
4673;DHT22;61885;53.560;9.940;2023-07-29T07:12:43;19.90;93.60
4673;DHT22;61885;53.560;9.940;2023-07-29T07:15:15;20.00;93.30
4673;DHT22;61885;53.560;9.940;2023-07-29T07:17:47;20.10;92.80
4673;DHT22;61885;53.560;9.940;2023-07-29T07:20:16;20.00;92.80
4673;DHT22;61885;53.560;9.940;2023-07-29T07:22:47;19.90;92.60
4673;DHT22;61885;53.560;9.940;2023-07-29T07:25:17;19.90;92.40
4673;DHT22;61885;53.560;9.940;2023-07-29T07:27:47;19.80;92.80
4673;DHT22;61885;53.560;9.940;2023-07-29T07:30:19;20.00;92.90
4673;DHT22;61885;53.560;9.940;2023-07-29T07:32:51;19.90;93.10
4673;DHT22;61885;53.560;9.940;2023-07-29T07:35:22;19.80;93.20
4673;DHT22;61885;53.560;9.940;2023-07-29T07:37:51;19.80;93.50
4673;DHT22;61885;53.560;9.940;2023-07-29T07:40:21;19.80;93.90
4673;DHT22;61885;53.560;9.940;2023-07-29T07:42:50;19.70;94.00
4673;DHT22;61885;53.560;9.940;2023-07-29T07:45:23;19.90;93.90
4673;DHT22;61885;53.560;9.940;2023-07-29T07:47:53;19.90;93.60
4673;DHT22;61885;53.560;9.940;2023-07-29T07:50:23;20.00;93.40
4673;DHT22;61885;53.560;9.940;2023-07-29T07:52:53;19.90;93.20
4673;DHT22;61885;53.560;9.940;2023-07-29T07:55:22;20.00;93.20
4673;DHT22;61885;53.560;9.940;2023-07-29T07:57:52;19.90;93.40
4673;DHT22;61885;53.560;9.940;2023-07-29T08:00:24;20.00;93.40
4673;DHT22;61885;53.560;9.940;2023-07-29T08:02:58;20.10;93.60
4673;DHT22;61885;53.560;9.940;2023-07-29T08:05:27;20.10;93.40
4673;DHT22;61885;53.560;9.940;2023-07-29T08:07:57;20.10;93.00
4673;DHT22;61885;53.560;9.940;2023-07-29T08:10:27;20.00;93.00
4673;DHT22;61885;53.560;9.940;2023-07-29T08:12:57;20.00;93.50
4673;DHT22;61885;53.560;9.940;2023-07-29T08:15:30;20.10;93.50
4673;DHT22;61885;53.560;9.940;2023-07-29T08:18:00;20.10;93.40
4673;DHT22;61885;53.560;9.940;2023-07-29T08:20:31;20.10;93.60
4673;DHT22;61885;53.560;9.940;2023-07-29T08:23:01;20.30;93.60
4673;DHT22;61885;53.560;9.940;2023-07-29T08:25:31;20.20;93.20
4673;DHT22;61885;53.560;9.940;2023-07-29T08:28:04;20.20;92.40
4673;DHT22;61885;53.560;9.940;2023-07-29T08:30:41;20.20;93.20
4673;DHT22;61885;53.560;9.940;2023-07-29T08:33:10;20.40;93.00
4673;DHT22;61885;53.560;9.940;2023-07-29T08:35:40;20.40;92.50
4673;DHT22;61885;53.560;9.940;2023-07-29T08:38:10;20.40;92.60
4673;DHT22;61885;53.560;9.940;2023-07-29T08:40:44;20.50;92.20
4673;DHT22;61885;53.560;9.940;2023-07-29T08:43:17;20.40;92.10
4673;DHT22;61885;53.560;9.940;2023-07-29T08:45:56;20.50;91.90
4673;DHT22;61885;53.560;9.940;2023-07-29T08:48:32;20.50;91.90
4673;DHT22;61885;53.560;9.940;2023-07-29T08:51:05;20.50;92.00
4673;DHT22;61885;53.560;9.940;2023-07-29T08:53:37;20.60;91.70
4673;DHT22;61885;53.560;9.940;2023-07-29T08:56:08;20.70;91.40
4673;DHT22;61885;53.560;9.940;2023-07-29T08:58:39;20.90;90.00
4673;DHT22;61885;53.560;9.940;2023-07-29T09:01:12;20.80;90.30
4673;DHT22;61885;53.560;9.940;2023-07-29T09:03:41;20.70;90.30
4673;DHT22;61885;53.560;9.940;2023-07-29T09:06:15;20.90;89.90
4673;DHT22;61885;53.560;9.940;2023-07-29T09:08:49;21.10;88.40
4673;DHT22;61885;53.560;9.940;2023-07-29T09:11:20;21.40;87.40
4673;DHT22;61885;53.560;9.940;2023-07-29T09:13:52;21.50;87.20
4673;DHT22;61885;53.560;9.940;2023-07-29T09:16:25;21.50;86.20
4673;DHT22;61885;53.560;9.940;2023-07-29T09:18:55;21.40;86.90
4673;DHT22;61885;53.560;9.940;2023-07-29T09:21:27;21.50;86.50
4673;DHT22;61885;53.560;9.940;2023-07-29T09:24:02;21.70;86.20
4673;DHT22;61885;53.560;9.940;2023-07-29T09:26:35;21.80;85.50
4673;DHT22;61885;53.560;9.940;2023-07-29T09:29:09;21.80;85.30
4673;DHT22;61885;53.560;9.940;2023-07-29T09:31:44;21.80;84.90
4673;DHT22;61885;53.560;9.940;2023-07-29T09:34:15;21.70;84.50
4673;DHT22;61885;53.560;9.940;2023-07-29T09:36:45;21.70;85.00
4673;DHT22;61885;53.560;9.940;2023-07-29T09:39:16;21.70;83.60
4673;DHT22;61885;53.560;9.940;2023-07-29T09:41:51;21.80;84.50
4673;DHT22;61885;53.560;9.940;2023-07-29T09:44:20;21.80;84.60
4673;DHT22;61885;53.560;9.940;2023-07-29T09:46:53;21.70;83.80
4673;DHT22;61885;53.560;9.940;2023-07-29T09:49:23;21.60;84.10
4673;DHT22;61885;53.560;9.940;2023-07-29T09:51:55;21.70;84.20
4673;DHT22;61885;53.560;9.940;2023-07-29T09:54:29;21.90;82.10
4673;DHT22;61885;53.560;9.940;2023-07-29T09:56:59;21.80;83.00
4673;DHT22;61885;53.560;9.940;2023-07-29T09:59:33;21.80;83.20
4673;DHT22;61885;53.560;9.940;2023-07-29T10:02:13;22.30;82.40
4673;DHT22;61885;53.560;9.940;2023-07-29T10:04:46;22.40;80.10
4673;DHT22;61885;53.560;9.940;2023-07-29T10:07:20;22.20;80.40
4673;DHT22;61885;53.560;9.940;2023-07-29T10:09:52;22.20;80.30
4673;DHT22;61885;53.560;9.940;2023-07-29T10:12:24;22.50;79.80
4673;DHT22;61885;53.560;9.940;2023-07-29T10:14:55;22.60;79.20
4673;DHT22;61885;53.560;9.940;2023-07-29T10:17:31;22.50;78.70
4673;DHT22;61885;53.560;9.940;2023-07-29T10:20:07;22.30;79.90
4673;DHT22;61885;53.560;9.940;2023-07-29T10:22:38;22.60;79.40
4673;DHT22;61885;53.560;9.940;2023-07-29T10:25:10;22.80;78.20
4673;DHT22;61885;53.560;9.940;2023-07-29T10:27:49;22.80;77.70
4673;DHT22;61885;53.560;9.940;2023-07-29T10:30:19;22.60;77.80
4673;DHT22;61885;53.560;9.940;2023-07-29T10:32:53;22.70;77.80
4673;DHT22;61885;53.560;9.940;2023-07-29T10:35:23;22.40;77.90
4673;DHT22;61885;53.560;9.940;2023-07-29T10:37:54;22.40;78.30
4673;DHT22;61885;53.560;9.940;2023-07-29T10:40:26;22.60;77.80
4673;DHT22;61885;53.560;9.940;2023-07-29T10:43:15;22.60;77.70
4673;DHT22;61885;53.560;9.940;2023-07-29T10:45:47;23.00;76.40
4673;DHT22;61885;53.560;9.940;2023-07-29T10:48:53;23.00;75.80
4673;DHT22;61885;53.560;9.940;2023-07-29T10:51:30;23.00;75.90
4673;DHT22;61885;53.560;9.940;2023-07-29T10:54:04;23.00;75.90
4673;DHT22;61885;53.560;9.940;2023-07-29T10:56:34;23.00;75.70
4673;DHT22;61885;53.560;9.940;2023-07-29T10:59:36;22.90;75.50
4673;DHT22;61885;53.560;9.940;2023-07-29T11:02:15;22.80;75.80
4673;DHT22;61885;53.560;9.940;2023-07-29T11:04:50;22.60;76.00
4673;DHT22;61885;53.560;9.940;2023-07-29T11:07:25;22.40;76.60
4673;DHT22;61885;53.560;9.940;2023-07-29T11:09:58;22.30;77.50
4673;DHT22;61885;53.560;9.940;2023-07-29T11:12:38;22.40;77.10
4673;DHT22;61885;53.560;9.940;2023-07-29T11:15:13;22.40;76.30
4673;DHT22;61885;53.560;9.940;2023-07-29T11:17:45;22.40;76.30
4673;DHT22;61885;53.560;9.940;2023-07-29T11:20:21;22.50;76.30
4673;DHT22;61885;53.560;9.940;2023-07-29T11:22:52;22.60;75.10
4673;DHT22;61885;53.560;9.940;2023-07-29T11:25:25;22.30;74.90
4673;DHT22;61885;53.560;9.940;2023-07-29T11:27:57;22.30;76.00
4673;DHT22;61885;53.560;9.940;2023-07-29T11:30:26;22.50;76.00
4673;DHT22;61885;53.560;9.940;2023-07-29T11:33:04;22.80;75.50
4673;DHT22;61885;53.560;9.940;2023-07-29T11:35:36;22.70;74.50
4673;DHT22;61885;53.560;9.940;2023-07-29T11:38:08;22.90;73.10
4673;DHT22;61885;53.560;9.940;2023-07-29T11:40:38;22.80;74.30
4673;DHT22;61885;53.560;9.940;2023-07-29T11:43:08;22.80;72.80
4673;DHT22;61885;53.560;9.940;2023-07-29T11:45:40;23.00;72.80
4673;DHT22;61885;53.560;9.940;2023-07-29T11:48:10;23.50;71.50
4673;DHT22;61885;53.560;9.940;2023-07-29T11:50:45;23.70;70.60
4673;DHT22;61885;53.560;9.940;2023-07-29T11:53:17;24.00;70.00
4673;DHT22;61885;53.560;9.940;2023-07-29T11:55:51;24.10;70.40
4673;DHT22;61885;53.560;9.940;2023-07-29T11:58:23;24.30;69.40
4673;DHT22;61885;53.560;9.940;2023-07-29T12:01:00;24.30;69.70
4673;DHT22;61885;53.560;9.940;2023-07-29T12:06:15;24.60;67.40
4673;DHT22;61885;53.560;9.940;2023-07-29T12:08:45;24.70;66.30
4673;DHT22;61885;53.560;9.940;2023-07-29T12:11:15;24.30;65.80
4673;DHT22;61885;53.560;9.940;2023-07-29T12:13:49;24.10;66.60
4673;DHT22;61885;53.560;9.940;2023-07-29T12:16:19;24.80;64.80
4673;DHT22;61885;53.560;9.940;2023-07-29T12:18:50;25.20;62.20
4673;DHT22;61885;53.560;9.940;2023-07-29T12:21:22;25.50;62.50
4673;DHT22;61885;53.560;9.940;2023-07-29T12:23:56;25.40;60.80
4673;DHT22;61885;53.560;9.940;2023-07-29T12:26:30;25.20;63.20
4673;DHT22;61885;53.560;9.940;2023-07-29T12:29:11;25.80;61.00
4673;DHT22;61885;53.560;9.940;2023-07-29T12:31:49;26.30;60.80
4673;DHT22;61885;53.560;9.940;2023-07-29T12:34:31;27.00;57.90
4673;DHT22;61885;53.560;9.940;2023-07-29T12:37:07;26.70;57.20
4673;DHT22;61885;53.560;9.940;2023-07-29T12:39:40;26.70;57.70
4673;DHT22;61885;53.560;9.940;2023-07-29T12:42:15;26.80;57.10
4673;DHT22;61885;53.560;9.940;2023-07-29T12:44:45;27.00;56.50
4673;DHT22;61885;53.560;9.940;2023-07-29T12:47:15;26.30;56.80
4673;DHT22;61885;53.560;9.940;2023-07-29T12:49:45;25.80;58.50
4673;DHT22;61885;53.560;9.940;2023-07-29T12:52:18;25.60;59.40
4673;DHT22;61885;53.560;9.940;2023-07-29T12:54:50;26.00;58.50
4673;DHT22;61885;53.560;9.940;2023-07-29T12:57:20;25.40;60.50
4673;DHT22;61885;53.560;9.940;2023-07-29T12:59:51;26.20;59.30
4673;DHT22;61885;53.560;9.940;2023-07-29T13:02:24;26.50;57.10
4673;DHT22;61885;53.560;9.940;2023-07-29T13:04:52;26.20;57.50
4673;DHT22;61885;53.560;9.940;2023-07-29T13:07:27;25.30;60.20
4673;DHT22;61885;53.560;9.940;2023-07-29T13:09:57;25.10;60.80
4673;DHT22;61885;53.560;9.940;2023-07-29T13:12:27;25.10;59.70
4673;DHT22;61885;53.560;9.940;2023-07-29T13:14:58;25.10;60.40
4673;DHT22;61885;53.560;9.940;2023-07-29T13:17:29;24.70;61.80
4673;DHT22;61885;53.560;9.940;2023-07-29T13:19:59;24.90;62.30
4673;DHT22;61885;53.560;9.940;2023-07-29T13:22:31;24.90;61.50
4673;DHT22;61885;53.560;9.940;2023-07-29T13:25:01;25.10;61.00
4673;DHT22;61885;53.560;9.940;2023-07-29T13:27:31;25.20;61.30
4673;DHT22;61885;53.560;9.940;2023-07-29T13:30:00;25.50;60.40
4673;DHT22;61885;53.560;9.940;2023-07-29T13:32:34;25.80;60.30
4673;DHT22;61885;53.560;9.940;2023-07-29T13:35:04;25.70;60.10
4673;DHT22;61885;53.560;9.940;2023-07-29T13:37:36;25.10;61.30
4673;DHT22;61885;53.560;9.940;2023-07-29T13:40:07;24.60;62.30
4673;DHT22;61885;53.560;9.940;2023-07-29T13:45:30;25.70;60.20
4673;DHT22;61885;53.560;9.940;2023-07-29T13:48:00;25.60;59.70
4673;DHT22;61885;53.560;9.940;2023-07-29T13:50:34;25.70;60.20
4673;DHT22;61885;53.560;9.940;2023-07-29T13:53:08;25.60;59.30
4673;DHT22;61885;53.560;9.940;2023-07-29T13:55:50;26.10;60.20
4673;DHT22;61885;53.560;9.940;2023-07-29T13:58:20;26.40;58.20
4673;DHT22;61885;53.560;9.940;2023-07-29T14:00:49;26.10;60.10
4673;DHT22;61885;53.560;9.940;2023-07-29T14:03:26;26.10;59.80
4673;DHT22;61885;53.560;9.940;2023-07-29T14:05:59;25.70;59.80
4673;DHT22;61885;53.560;9.940;2023-07-29T14:08:37;25.20;61.50
4673;DHT22;61885;53.560;9.940;2023-07-29T14:11:08;25.30;62.30
4673;DHT22;61885;53.560;9.940;2023-07-29T14:13:37;25.20;61.70
4673;DHT22;61885;53.560;9.940;2023-07-29T14:16:08;25.00;62.50
4673;DHT22;61885;53.560;9.940;2023-07-29T14:18:39;24.50;63.30
4673;DHT22;61885;53.560;9.940;2023-07-29T14:21:11;24.70;63.50
4673;DHT22;61885;53.560;9.940;2023-07-29T14:23:43;25.20;62.10
4673;DHT22;61885;53.560;9.940;2023-07-29T14:26:13;25.30;61.70
4673;DHT22;61885;53.560;9.940;2023-07-29T14:28:45;25.60;60.70
4673;DHT22;61885;53.560;9.940;2023-07-29T14:31:17;26.20;58.00
4673;DHT22;61885;53.560;9.940;2023-07-29T14:33:50;27.10;55.90
4673;DHT22;61885;53.560;9.940;2023-07-29T14:36:20;27.40;55.60
4673;DHT22;61885;53.560;9.940;2023-07-29T14:38:53;27.60;55.00
4673;DHT22;61885;53.560;9.940;2023-07-29T14:41:22;27.40;55.40
4673;DHT22;61885;53.560;9.940;2023-07-29T14:43:54;27.30;55.50
4673;DHT22;61885;53.560;9.940;2023-07-29T14:46:24;27.60;55.30
4673;DHT22;61885;53.560;9.940;2023-07-29T14:48:54;28.00;54.10
4673;DHT22;61885;53.560;9.940;2023-07-29T14:51:26;29.30;51.50
4673;DHT22;61885;53.560;9.940;2023-07-29T14:53:58;27.90;53.90
4673;DHT22;61885;53.560;9.940;2023-07-29T14:56:28;28.30;52.70
4673;DHT22;61885;53.560;9.940;2023-07-29T14:58:59;28.20;53.00
4673;DHT22;61885;53.560;9.940;2023-07-29T15:01:29;27.90;52.70
4673;DHT22;61885;53.560;9.940;2023-07-29T15:04:01;27.70;53.80
4673;DHT22;61885;53.560;9.940;2023-07-29T15:06:30;28.50;52.70
4673;DHT22;61885;53.560;9.940;2023-07-29T15:09:04;29.40;49.80
4673;DHT22;61885;53.560;9.940;2023-07-29T15:11:34;28.10;52.50
4673;DHT22;61885;53.560;9.940;2023-07-29T15:14:03;28.30;52.20
4673;DHT22;61885;53.560;9.940;2023-07-29T15:16:35;29.30;50.40
4673;DHT22;61885;53.560;9.940;2023-07-29T15:19:11;29.10;50.00
4673;DHT22;61885;53.560;9.940;2023-07-29T15:21:40;28.90;50.90
4673;DHT22;61885;53.560;9.940;2023-07-29T15:24:15;29.90;48.50
4673;DHT22;61885;53.560;9.940;2023-07-29T15:26:45;30.00;48.10
4673;DHT22;61885;53.560;9.940;2023-07-29T15:29:15;31.80;46.00
4673;DHT22;61885;53.560;9.940;2023-07-29T15:31:46;31.20;45.70
4673;DHT22;61885;53.560;9.940;2023-07-29T15:34:17;30.40;46.60
4673;DHT22;61885;53.560;9.940;2023-07-29T15:36:52;29.60;48.10
4673;DHT22;61885;53.560;9.940;2023-07-29T15:39:24;29.70;47.90
4673;DHT22;61885;53.560;9.940;2023-07-29T15:41:54;29.90;47.50
4673;DHT22;61885;53.560;9.940;2023-07-29T15:44:23;29.00;47.80
4673;DHT22;61885;53.560;9.940;2023-07-29T15:46:54;27.80;50.80
4673;DHT22;61885;53.560;9.940;2023-07-29T15:49:24;27.00;52.90
4673;DHT22;61885;53.560;9.940;2023-07-29T15:51:56;26.70;53.40
4673;DHT22;61885;53.560;9.940;2023-07-29T15:54:31;25.90;56.00
4673;DHT22;61885;53.560;9.940;2023-07-29T15:57:01;25.30;57.00
4673;DHT22;61885;53.560;9.940;2023-07-29T15:59:31;24.90;58.80
4673;DHT22;61885;53.560;9.940;2023-07-29T16:02:04;25.10;58.30
4673;DHT22;61885;53.560;9.940;2023-07-29T16:04:36;25.00;58.60
4673;DHT22;61885;53.560;9.940;2023-07-29T16:07:06;24.90;59.50
4673;DHT22;61885;53.560;9.940;2023-07-29T16:09:40;24.60;60.10
4673;DHT22;61885;53.560;9.940;2023-07-29T16:12:11;23.90;63.50
4673;DHT22;61885;53.560;9.940;2023-07-29T16:14:40;23.30;66.60
4673;DHT22;61885;53.560;9.940;2023-07-29T16:17:11;22.70;68.70
4673;DHT22;61885;53.560;9.940;2023-07-29T16:19:54;22.20;72.00
4673;DHT22;61885;53.560;9.940;2023-07-29T16:22:26;21.90;73.50